Latest Coastal Weather Observations for Proserpine

IDQ60701

Issued at 1:56 am EST Wednesday 27 July 2016 (issued every 10 minutes, with the page automatically refreshed every 10 minutes)

About coastal observations | Map of coastal stations | Coastal observations for QLD | Marine services | Other Formats
Station Details ID: 033247 Name: PROSERPINE AIRPORT Lat: -20.49 Lon: 148.56 Height: 19.7 m
Data from the previous 72 hours. | See also: Recent months at Proserpine
Date/Time
EST
Temp
°C
Wind Pressure Rain since
9am
mm
Weather Cloud Vis
km
Sea
Height
m
Swell
Dir  Spd
kts
Gust
kts
hPa Trend Height
m
Period
s
Dir
27/01:30am 18.0 S 5 7 1018.1 - 0.0 - Partly cloudy 10 - - - -
27/01:00am 17.8 SSW 6 8 1018.2 - 0.0 - Partly cloudy 10 - - - -
27/12:30am 17.7 SSW 6 7 1018.2 - 0.0 - Partly cloudy 10 - - - -
27/12:26am 17.7 SSW 6 7 1018.2 - 0.0 - Partly cloudy 10 - - - -
27/12:00am 17.4 SSW 5 6 1018.2 - 0.0 - Partly cloudy 10 - - - -
 
Date/Time
EST
Temp
°C
Wind Pressure Rain since
9am
mm
Weather Cloud Vis
km
Sea
Height
m
Swell
Dir  Spd
kts
Gust
kts
hPa Trend Height
m
Period
s
Dir
26/11:30pm 17.5 SSW 6 7 1018.0 - 0.0 - - 10 - - - -
26/11:00pm 17.9 SSW 7 7 1018.0 - 0.0 - Partly cloudy 10 - - - -
26/10:30pm 18.3 S 6 7 1018.0 - 0.0 - Partly cloudy 10 - - - -
26/10:00pm 17.8 S 4 5 1017.9 - 0.0 - - 10 - - - -
26/09:30pm 17.9 SSW 5 6 1017.8 - 0.0 - Partly cloudy 10 - - - -
26/09:16pm 18.1 SSW 6 7 1017.8 - 0.0 - Partly cloudy 10 - - - -
26/09:00pm 17.9 SSW 6 6 1017.7 - 0.0 - Mostly clear 10 - - - -
26/08:30pm 18.1 SSW 6 7 1017.6 - 0.0 - Partly cloudy 10 - - - -
26/08:28pm 18.2 SSW 6 7 1017.6 - 0.0 - Partly cloudy 10 - - - -
26/08:11pm 18.4 SSW 6 7 1017.5 - 0.0 - Partly cloudy 10 - - - -
26/08:00pm 18.4 SSW 5 6 1017.4 - 0.0 - Partly cloudy 10 - - - -
26/07:30pm 19.0 SSE 3 3 1017.2 - 0.0 - - 10 - - - -
26/07:00pm 19.1 SSE 4 5 1016.8 - 0.0 - - 10 - - - -
26/06:30pm 19.6 SE 5 6 1016.3 - 0.0 - - 10 - - - -
26/06:00pm 20.3 ESE 5 7 1016.0 - 0.0 - - 10 - - - -
26/05:30pm 21.5 ESE 7 8 1015.9 - 0.0 - - 10 - - - -
26/05:00pm 22.7 ESE 7 9 1015.6 - 0.0 - - 10 - - - -
26/04:30pm 23.5 E 7 9 1015.3 - 0.0 - - 10 - - - -
26/04:00pm 23.9 ESE 7 10 1015.2 - 0.0 - - 10 - - - -
26/03:30pm 23.9 ESE 8 11 1015.2 - 0.0 - - 10 - - - -
26/03:00pm 24.1 ESE 8 11 1015.4 - 0.0 - - 10 - - - -
26/02:30pm 24.4 ESE 9 12 1015.6 - 0.0 - - 10 - - - -
26/02:00pm 23.8 ESE 8 11 1015.8 - 0.0 - Partly cloudy 10 - - - -
26/01:30pm 24.6 E 9 13 1016.2 - 0.0 - Partly cloudy 10 - - - -
26/01:00pm 24.1 ESE 8 12 1016.4 - 0.0 - Partly cloudy 10 - - - -
26/12:30pm 24.3 ESE 9 12 1016.8 - 0.0 - Partly cloudy 10 - - - -
26/12:00pm 23.8 ESE 8 12 1017.3 - 0.0 - Mostly cloudy 10 - - - -
26/11:30am 23.5 SE 7 13 1017.6 - 0.0 - Cloudy 10 - - - -
26/11:00am 23.4 SSE 7 10 1017.8 - 0.0 - Cloudy 10 - - - -
26/10:30am 22.6 ESE 7 9 1018.3 - 0.0 - Cloudy 10 - - - -
26/10:00am 22.1 SE 8 11 1018.5 - 0.0 - Partly cloudy 10 - - - -
26/09:30am 20.9 SE 4 6 1018.6 - 0.0 - Cloudy 10 - - - -
26/09:00am 18.5 S 2 4 1018.6 - 0.0 - Cloudy 10 - - - -
26/08:55am 18.4 S 3 4 1018.6 - 0.0 - Cloudy 10 - - - -
26/08:30am 17.8 SSW 3 4 1018.4 - 0.0 - Partly cloudy 10 - - - -
26/08:24am 17.6 SSW 3 4 1018.4 - 0.0 - Partly cloudy 10 - - - -
26/08:00am 16.9 S 2 4 1018.2 - 0.0 - Cloudy 10 - - - -
26/07:30am 15.9 SSW 4 6 1017.9 - 0.0 - Partly cloudy 10 - - - -
26/07:00am 15.3 SSW 3 4 1017.8 - 0.0 - Partly cloudy 10 - - - -
26/06:30am 14.9 SSW 3 6 1017.5 - 0.0 - Cloudy 10 - - - -
26/06:02am 14.9 S 3 5 1017.3 - 0.0 - Cloudy 10 - - - -
26/06:00am 14.9 S 3 5 1017.3 - 0.0 - Mostly cloudy 10 - - - -
26/05:30am 14.2 SW 4 6 1017.0 - 0.0 - Partly cloudy 10 - - - -
26/05:00am 14.8 SSW 5 5 1017.0 - 0.0 - Cloudy 10 - - - -
26/04:30am 15.0 CALM 0 0 1017.0 - 0.0 - Cloudy 10 - - - -
26/04:00am 14.6 CALM 0 0 1017.0 - 0.0 - Partly cloudy 10 - - - -
26/03:34am 14.2 CALM 0 0 1016.8 - 0.0 - Partly cloudy 10 - - - -
26/03:30am 13.9 CALM 0 3 1016.8 - 0.0 - Partly cloudy 10 - - - -
26/03:00am 14.5 S 3 4 1016.9 - 0.0 - - 10 - - - -
26/02:30am 14.4 S 3 4 1017.1 - 0.0 - - 10 - - - -
26/02:00am 14.6 SSW 7 8 1017.1 - 0.0 - - 10 - - - -
26/01:30am 14.5 SSW 7 7 1017.5 - 0.0 - - 10 - - - -
26/01:00am 14.7 SSW 5 6 1017.9 - 0.0 - - 10 - - - -
26/12:30am 14.9 SSW 6 6 1017.9 - 0.0 - - 10 - - - -
26/12:00am 14.9 SSW 6 7 1017.9 - 0.0 - - 10 - - - -
 
Date/Time
EST
Temp
°C
Wind Pressure Rain since
9am
mm
Weather Cloud Vis
km
Sea
Height
m
Swell
Dir  Spd
kts
Gust
kts
hPa Trend Height
m
Period
s
Dir
25/11:30pm 15.0 SW 4 5 1018.0 - 0.0 - - 10 - - - -
25/11:00pm 15.2 SSW 2 4 1018.0 - 0.0 - - 10 - - - -
25/10:30pm 15.4 SSW 2 4 1017.9 - 0.0 - - 10 - - - -
25/10:00pm 15.9 CALM 0 0 1017.8 - 0.0 - - 10 - - - -
25/09:30pm 16.2 CALM 0 0 1017.7 - 0.0 - - 10 - - - -
25/09:00pm 16.7 SSW 4 5 1017.6 - 0.0 - - 10 - - - -
25/08:30pm 17.2 S 4 5 1017.5 - 0.0 - - 10 - - - -
25/08:00pm 17.8 S 3 4 1017.2 - 0.0 - - 10 - - - -
25/07:30pm 17.8 SSW 5 6 1017.0 - 0.0 - - 10 - - - -
25/07:00pm 18.1 SSW 4 6 1016.6 - 0.0 - - 10 - - - -
25/06:30pm 19.0 SSW 4 4 1016.2 - 0.0 - - 10 - - - -
25/06:00pm 19.9 SSW 5 6 1015.9 - 0.0 - - 10 - - - -
25/05:30pm 21.5 SE 5 7 1015.8 - 0.0 - - 10 - - - -
25/05:00pm 22.7 ESE 7 11 1015.5 - 0.0 - - 10 - - - -
25/04:30pm 23.5 ESE 9 13 1015.2 - 0.0 - - 10 - - - -
25/04:00pm 23.8 ESE 11 14 1015.1 - 0.0 - - 10 - - - -
25/03:30pm 24.5 ESE 11 15 1014.8 - 0.0 - - 10 - - - -
25/03:00pm 25.2 E 11 13 1014.8 - 0.0 - - 10 - - - -
25/02:30pm 25.9 ESE 9 13 1014.9 - 0.0 - - 10 - - - -
25/02:00pm 26.0 ESE 11 14 1015.2 - 0.0 - - 10 - - - -
25/01:30pm 25.8 ESE 10 13 1015.5 - 0.0 - - 10 - - - -
25/01:00pm 25.8 ESE 10 15 1015.9 - 0.0 - - 10 - - - -
25/12:30pm 25.9 ESE 10 14 1016.4 - 0.0 - - 10 - - - -
25/12:00pm 25.4 ESE 10 15 1016.9 - 0.0 - - 10 - - - -
25/11:30am 25.7 ESE 9 13 1017.2 - 0.0 - - 10 - - - -
25/11:00am 25.0 E 9 13 1017.5 - 0.0 - - 10 - - - -
25/10:30am 23.9 ENE 6 9 1017.7 - 0.0 - - 10 - - - -
25/10:02am 22.2 ENE 5 8 1018.0 - 0.0 - Partly cloudy 10 - - - -
25/10:00am 22.2 E 5 8 1018.1 - 0.0 - Partly cloudy 10 - - - -
25/09:40am 21.4 E 3 5 1018.1 - 0.0 - Partly cloudy 10 - - - -
25/09:30am 21.1 E 3 5 1018.1 - 0.0 - Cloudy 6 - - - -
25/09:16am 20.5 ESE 5 6 1018.2 - 0.0 - Cloudy 6 - - - -
25/09:00am 20.4 ESE 5 7 1018.0 - 0.2 - Mostly cloudy 10 - - - -
25/08:46am 20.4 SSE 4 6 1018.1 - 0.2 - Partly cloudy 10 - - - -
25/08:30am 19.6 S 3 5 1018.0 - 0.2 - Partly cloudy 10 - - - -
25/08:01am 18.1 SE 3 5 1017.6 - 0.2 - Partly cloudy 10 - - - -
25/08:00am 18.1 SE 3 4 1017.6 - 0.2 - Partly cloudy 10 - - - -
25/07:57am 18.0 SSE 3 4 1017.5 - 0.2 - Partly cloudy 10 - - - -
25/07:30am 16.7 SSE 2 4 1017.3 - 0.2 - Partly cloudy 0.8 - - - -
25/07:00am 15.9 SSW 1 4 1016.8 - 0.0 - Partly cloudy 0.5 - - - -
25/06:30am 16.0 SSW 4 6 1016.5 - 0.0 - Cloudy 0.1 - - - -
25/06:00am 15.9 CALM 0 0 1016.3 - 0.0 - Cloudy 0.1 - - - -
25/05:30am 15.7 CALM 0 0 1015.9 - 0.0 - Cloudy 0.1 - - - -
25/05:10am 15.6 CALM 0 0 1015.7 - 0.0 - Partly cloudy 0.7 - - - -
25/05:00am 15.6 CALM 0 0 1015.7 - 0.0 - Partly cloudy 0.7 - - - -
25/04:30am 15.6 CALM 0 0 1015.6 - 0.0 - - 0.8 - - - -
25/04:14am 15.6 CALM 0 0 1015.5 - 0.0 - Partly cloudy 0.3 - - - -
25/04:00am 15.9 CALM 0 0 1015.4 - 0.0 - Partly cloudy 0.2 - - - -
25/03:39am 16.2 CALM 0 0 1015.5 - 0.0 - Partly cloudy 3 - - - -
25/03:30am 16.3 CALM 0 0 1015.4 - 0.0 - Partly cloudy 9 - - - -
25/03:24am 16.4 CALM 0 0 1015.5 - 0.0 - Partly cloudy 10 - - - -
25/03:11am 16.3 CALM 0 0 1015.6 - 0.0 - Partly cloudy 8 - - - -
25/03:00am 16.4 CALM 0 0 1015.6 - 0.0 - - 2 - - - -
25/02:30am 17.0 CALM 0 0 1015.6 - 0.0 - Partly cloudy 2 - - - -
25/02:04am 16.8 SW 1 3 1015.6 - 0.0 - - 6 - - - -
25/02:00am 16.7 SW 2 4 1015.6 - 0.0 - - 8 - - - -
25/01:41am 17.1 SSW 4 4 1015.8 - 0.0 - - 10 - - - -
25/01:30am 16.6 SSW 4 4 1015.8 - 0.0 - - 6 - - - -
25/01:08am 16.9 CALM 0 0 1015.8 - 0.0 - - 4 - - - -
25/01:00am 17.1 CALM 0 0 1015.8 - 0.0 - - 10 - - - -
25/12:48am 17.5 CALM 0 0 1015.9 - 0.0 - - 10 - - - -
25/12:33am 17.6 CALM 0 0 1016.0 - 0.0 - - 6 - - - -
25/12:30am 17.8 CALM 0 0 1016.0 - 0.0 - - 8 - - - -
25/12:00am 17.4 CALM 0 0 1016.1 - 0.0 - - 10 - - - -
 
Date/Time
EST
Temp
°C
Wind Pressure Rain since
9am
mm
Weather Cloud Vis
km
Sea
Height
m
Swell
Dir  Spd
kts
Gust
kts
hPa Trend Height
m
Period
s
Dir
24/11:30pm 17.5 CALM 0 0 1016.1 - 0.0 - - 10 - - - -
24/11:00pm 18.1 CALM 0 0 1016.2 - 0.0 - - 10 - - - -
24/10:30pm 18.4 CALM 0 0 1016.2 - 0.0 - - 10 - - - -
24/10:00pm 18.6 CALM 0 0 1016.3 - 0.0 - - 10 - - - -
24/09:30pm 19.0 CALM 0 0 1016.1 - 0.0 - - 10 - - - -
24/09:00pm 19.2 CALM 0 0 1015.7 - 0.0 - - 10 - - - -
24/08:30pm 19.5 CALM 0 0 1015.5 - 0.0 - - 10 - - - -
24/08:00pm 20.1 CALM 0 0 1015.3 - 0.0 - - 10 - - - -
24/07:30pm 20.7 CALM 0 0 1015.0 - 0.0 - - 10 - - - -
24/07:00pm 21.3 N 3 4 1014.8 - 0.0 - - 10 - - - -
24/06:30pm 21.8 NNW 4 5 1014.5 - 0.0 - - 10 - - - -
24/06:00pm 22.9 N 5 7 1014.1 - 0.0 - - 10 - - - -
24/05:30pm 24.2 NNE 6 9 1013.8 - 0.0 - Partly cloudy 10 - - - -
24/05:00pm 26.1 NNE 6 9 1013.5 - 0.0 - - 10 - - - -
24/04:30pm 27.4 NE 6 8 1013.3 - 0.0 - - 10 - - - -
24/04:00pm 28.7 NE 6 10 1012.9 - 0.0 - Partly cloudy 10 - - - -
24/03:30pm 28.8 E 5 9 1012.9 - 0.0 - Partly cloudy 10 - - - -
24/03:00pm 29.0 NNE 5 8 1012.9 - 0.0 - - 10 - - - -
24/02:30pm 29.1 N 4 6 1013.0 - 0.0 - - 10 - - - -
24/02:00pm 28.5 NNE 5 9 1013.3 - 0.0 - - 10 - - - -
24/01:30pm 28.5 NNW 2 5 1013.8 - 0.0 - - 10 - - - -
24/01:00pm 27.9 NW 5 7 1014.1 - 0.0 - - 10 - - - -
24/12:30pm 28.1 N 4 7 1014.6 - 0.0 - - 10 - - - -
24/12:00pm 27.0 N 3 6 1015.1 - 0.0 - - 10 - - - -
24/11:30am 26.9 NW 5 8 1015.7 - 0.0 - - 10 - - - -
24/11:00am 25.6 W 6 8 1016.1 - 0.0 - - 10 - - - -
24/10:30am 25.2 NNW 6 8 1016.4 - 0.0 - - 10 - - - -
24/10:00am 24.2 N 7 9 1016.6 - 0.0 - - 10 - - - -
24/09:30am 23.2 NNW 4 6 1016.7 - 0.0 - - 10 - - - -
24/09:00am 20.7 WSW 1 3 1016.7 - 0.0 - - 10 - - - -
24/08:30am 19.1 CALM 0 0 1016.4 - 0.0 - - 10 - - - -
24/08:00am 17.6 CALM 0 0 1016.2 - 0.0 - Partly cloudy 10 - - - -
24/07:55am 17.2 CALM 0 0 1016.3 - 0.0 - Partly cloudy 10 - - - -
24/07:53am 17.1 CALM 0 0 1016.3 - 0.0 - Partly cloudy 10 - - - -
24/07:38am 16.5 CALM 0 0 1016.2 - 0.0 - Partly cloudy 6 - - - -
24/07:31am 16.0 CALM 0 0 1016.2 - 0.0 - Partly cloudy 9 - - - -
24/07:30am 16.0 CALM 0 0 1016.2 - 0.0 - Partly cloudy 9 - - - -
24/07:21am 15.7 CALM 0 0 1016.1 - 0.0 - Partly cloudy 6 - - - -
24/07:20am 15.7 CALM 0 0 1016.1 - 0.0 - Partly cloudy 4 - - - -
24/07:00am 15.1 CALM 0 0 1015.9 - 0.0 - Partly cloudy 0.3 - - - -
24/06:30am 15.2 CALM 0 0 1015.7 - 0.0 - Partly cloudy 0.3 - - - -
24/06:02am 15.3 W 1 3 1015.3 - 0.0 - Partly cloudy 6 - - - -
24/06:00am 15.3 W 1 3 1015.3 - 0.0 - Cloudy 10 - - - -
24/05:30am 15.2 W 3 3 1014.9 - 0.0 - Partly cloudy 10 - - - -
24/05:17am 15.4 CALM 0 0 1014.8 - 0.0 - Partly cloudy 10 - - - -
24/05:16am 15.4 CALM 0 0 1014.8 - 0.0 - Partly cloudy 10 - - - -
24/05:00am 15.6 CALM 0 0 1014.6 - 0.0 - Partly cloudy 7 - - - -
24/04:30am 15.7 CALM 0 0 1014.3 - 0.0 - - 0.9 - - - -
24/04:03am 15.9 CALM 0 0 1014.3 - 0.0 - Partly cloudy 0.7 - - - -
24/04:00am 15.9 CALM 0 0 1014.3 - 0.0 - Partly cloudy 0.5 - - - -
24/03:30am 15.9 W 1 3 1014.3 - 0.0 - Cloudy 0.2 - - - -
24/03:00am 15.7 NNW 2 4 1014.2 - 0.0 - Partly cloudy 0.4 - - - -
24/02:30am 16.1 CALM 0 0 1014.1 - 0.0 - Cloudy 0.1 - - - -
24/02:06am 16.0 CALM 0 0 1014.2 - 0.0 - Partly cloudy 5 - - - -
24/02:03am 16.1 CALM 0 0 1014.2 - 0.0 - Partly cloudy 5 - - - -
24/02:00am 16.3 CALM 0 0 1014.2 - 0.0 - Partly cloudy 10 - - - -

Other Formats:

Comma delimited format used in spreadsheet applications
http://www.bom.gov.au/fwo/IDQ60701/IDQ60701.94365.axf

JavaScript Object Notation format (JSON) in row-major order
http://www.bom.gov.au/fwo/IDQ60701/IDQ60701.94365.json